Time;durP1;ratioP1;P1;durP2;ratioP2;P2;SDS_P1;SDS_P2;PMS_P1;PMS_P2;Temp;Humidity;BMP_temperature;BMP_pressure;BME280_temperature;BME280_humidity;BME280_pressure;Samples;Min_cycle;Max_cycle;Signal;HPM_P1;HPM_P2
2022/01/20 13:05:43;;;;;;;5.40;3.45;;;;;;;2.35;100.00;95852.81;5155842;27;20477;-70
2022/01/20 13:08:08;;;;;;;5.55;3.80;;;;;;;2.27;100.00;95853.78;5137785;27;20176;-70
2022/01/20 13:10:35;;;;;;;5.05;3.58;;;;;;;2.20;100.00;95856.41;5151647;27;20105;-69
2022/01/20 13:13:05;;;;;;;4.60;3.50;;;;;;;2.03;100.00;95857.69;5153845;27;20533;-69
2022/01/20 13:15:32;;;;;;;4.45;3.38;;;;;;;1.93;100.00;95844.00;5151005;27;20495;-68
2022/01/20 13:18:06;;;;;;;5.25;3.20;;;;;;;1.96;100.00;95844.47;5145726;27;20590;-69
2022/01/20 13:20:40;;;;;;;5.38;3.75;;;;;;;2.05;100.00;95837.19;5151334;27;20030;-69
2022/01/20 13:26:08;;;;;;;8.93;3.38;;;;;;;2.03;100.00;95800.38;5126902;27;20043;-69
2022/01/20 13:28:36;;;;;;;4.40;3.28;;;;;;;1.99;100.00;95803.63;5143627;27;20113;-67
2022/01/20 13:31:16;;;;;;;4.88;3.80;;;;;;;1.98;100.00;95807.28;5152098;27;20393;-69
2022/01/20 13:33:41;;;;;;;6.88;3.28;;;;;;;1.92;100.00;95789.53;5148972;27;20022;-65
2022/01/20 13:36:06;;;;;;;5.90;3.50;;;;;;;1.94;100.00;95788.34;5146334;27;20027;-68
2022/01/20 13:38:34;;;;;;;5.75;3.65;;;;;;;1.97;100.00;95777.41;5150961;27;20568;-69
2022/01/20 13:41:06;;;;;;;5.25;3.20;;;;;;;2.08;100.00;95773.41;5147691;27;20027;-68
2022/01/20 13:46:21;;;;;;;5.72;3.90;;;;;;;2.06;100.00;95774.59;5145642;27;20034;-70
2022/01/20 13:48:47;;;;;;;5.22;3.60;;;;;;;2.06;100.00;95778.03;5142821;27;20031;-66
2022/01/20 13:51:17;;;;;;;5.05;3.40;;;;;;;2.17;100.00;95780.16;5149029;27;20385;-69
2022/01/20 13:53:54;;;;;;;6.90;3.85;;;;;;;2.20;100.00;95781.59;5146166;27;20031;-69
2022/01/20 13:56:19;;;;;;;4.63;3.40;;;;;;;2.15;100.00;95776.06;5141680;27;20481;-67
2022/01/20 13:58:50;;;;;;;3.85;3.08;;;;;;;2.16;100.00;95773.22;5126175;27;20026;-70
2022/01/20 14:01:20;;;;;;;4.78;3.50;;;;;;;2.18;100.00;95775.69;5145376;27;20078;-69
2022/01/20 14:03:46;;;;;;;4.75;3.75;;;;;;;2.40;100.00;95777.22;5143159;27;20390;-67
2022/01/20 14:06:11;;;;;;;5.93;3.53;;;;;;;2.70;100.00;95779.56;5141907;27;20023;-68
2022/01/20 14:08:39;;;;;;;5.45;3.80;;;;;;;2.77;100.00;95783.03;5143968;27;20515;-69
2022/01/20 14:11:05;;;;;;;4.75;3.10;;;;;;;2.83;100.00;95787.56;5140297;27;20107;-68
2022/01/20 14:13:31;;;;;;;4.55;3.47;;;;;;;2.97;100.00;95783.09;5146820;27;20062;-69
2022/01/20 14:16:01;;;;;;;4.03;3.10;;;;;;;3.23;100.00;95782.31;5145364;27;20099;-68
2022/01/20 14:18:40;;;;;;;5.85;2.80;;;;;;;3.41;100.00;95779.91;5140580;27;20023;-65
2022/01/20 14:21:07;;;;;;;4.82;3.58;;;;;;;3.45;100.00;95787.22;5137218;27;20023;-69
2022/01/20 14:23:35;;;;;;;5.43;2.83;;;;;;;3.20;100.00;95786.19;5136032;27;20033;-68
2022/01/20 14:26:01;;;;;;;5.30;3.20;;;;;;;2.96;100.00;95781.47;5134948;27;20037;-69
2022/01/20 14:28:27;;;;;;;3.97;3.20;;;;;;;2.83;100.00;95782.25;5130130;27;20499;-68
2022/01/20 14:30:52;;;;;;;4.88;3.25;;;;;;;2.69;100.00;95783.22;5132455;27;20110;-70
2022/01/20 14:33:20;;;;;;;3.97;2.78;;;;;;;2.63;100.00;95784.03;5133270;27;20051;-68
2022/01/20 14:35:49;;;;;;;4.95;2.85;;;;;;;2.61;100.00;95777.09;5132223;27;20027;-69
2022/01/20 14:38:15;;;;;;;5.00;3.10;;;;;;;2.52;100.00;95767.72;5129331;27;20522;-69
2022/01/20 14:40:40;;;;;;;4.18;2.65;;;;;;;2.45;100.00;95768.69;5128414;27;20029;-68
2022/01/20 14:43:05;;;;;;;6.22;3.45;;;;;;;2.40;100.00;95771.94;5128809;27;20080;-69
2022/01/20 14:45:31;;;;;;;6.68;3.08;;;;;;;2.31;100.00;95773.91;5129871;27;20389;-68
2022/01/20 14:48:02;;;;;;;6.00;2.75;;;;;;;2.28;100.00;95784.91;5130595;27;20150;-68
2022/01/20 14:50:28;;;;;;;4.28;2.83;;;;;;;2.21;100.00;95777.94;5128016;27;20023;-69
2022/01/20 14:52:55;;;;;;;4.72;3.20;;;;;;;2.19;100.00;95770.22;5130381;27;20072;-68
2022/01/20 14:55:21;;;;;;;6.15;2.92;;;;;;;2.17;100.00;95766.09;5131546;27;20022;-69
2022/01/20 14:57:49;;;;;;;4.50;2.72;;;;;;;2.11;100.00;95766.91;5128985;27;20030;-69
2022/01/20 15:00:16;;;;;;;3.53;2.50;;;;;;;2.03;100.00;95760.75;5129524;27;20379;-69
2022/01/20 15:02:45;;;;;;;4.47;2.78;;;;;;;1.99;100.00;95762.16;5132358;27;20030;-69
2022/01/20 15:05:16;;;;;;;4.15;2.67;;;;;;;1.96;100.00;95756.47;5112473;27;20398;-68
2022/01/20 15:07:45;;;;;;;6.07;2.85;;;;;;;1.95;100.00;95749.53;5111438;28;20024;-68
2022/01/20 15:10:12;;;;;;;3.67;2.70;;;;;;;1.88;100.00;95749.50;5111076;28;20051;-70
2022/01/20 15:12:39;;;;;;;3.70;2.60;;;;;;;1.87;100.00;95747.88;5111067;28;20031;-69
2022/01/20 15:15:06;;;;;;;5.15;2.58;;;;;;;1.83;100.00;95733.41;5120720;27;20050;-69
2022/01/20 15:17:34;;;;;;;3.85;2.83;;;;;;;1.84;100.00;95742.97;5116101;27;20027;-69
2022/01/20 15:19:59;;;;;;;7.32;3.90;;;;;;;1.73;100.00;95741.66;5111439;28;20048;-68
2022/01/20 15:22:31;;;;;;;7.15;3.40;;;;;;;1.75;100.00;95738.88;5114691;27;20511;-69
2022/01/20 15:24:56;;;;;;;7.03;2.95;;;;;;;1.67;100.00;95750.38;5112891;28;20084;-68
2022/01/20 15:27:21;;;;;;;3.30;2.28;;;;;;;1.66;100.00;95750.59;5125234;27;20051;-69
2022/01/20 15:29:47;;;;;;;5.32;2.58;;;;;;;1.66;100.00;95755.88;5124860;27;20065;-67
2022/01/20 15:32:14;;;;;;;5.53;2.72;;;;;;;1.61;100.00;95759.06;5116828;27;20020;-69
2022/01/20 15:34:40;;;;;;;4.75;2.50;;;;;;;1.56;100.00;95760.66;5122202;27;20102;-69
2022/01/20 15:37:08;;;;;;;4.97;2.55;;;;;;;1.55;100.00;95765.13;5131628;27;20126;-69
2022/01/20 15:39:33;;;;;;;3.88;2.38;;;;;;;1.54;100.00;95767.97;5132213;27;20023;-69
2022/01/20 15:41:58;;;;;;;4.78;2.58;;;;;;;1.53;100.00;95774.25;5136097;27;20039;-68
2022/01/20 15:44:24;;;;;;;3.45;2.38;;;;;;;1.49;100.00;95768.53;5123722;27;20428;-69
2022/01/20 15:46:52;;;;;;;5.60;2.30;;;;;;;1.46;100.00;95766.28;5112671;27;20030;-68
2022/01/20 15:49:17;;;;;;;3.08;2.10;;;;;;;1.44;100.00;95768.28;5130356;27;20030;-68
2022/01/20 15:51:43;;;;;;;4.65;2.65;;;;;;;1.42;100.00;95767.69;5112965;28;20028;-69
2022/01/20 15:54:08;;;;;;;4.88;2.67;;;;;;;1.41;100.00;95773.94;5113289;27;20113;-69
2022/01/20 15:56:36;;;;;;;4.47;2.30;;;;;;;1.40;100.00;95785.50;5121677;27;20234;-69
2022/01/20 15:59:04;;;;;;;5.70;2.40;;;;;;;1.41;100.00;95787.13;5128719;27;20569;-69
2022/01/20 16:01:34;;;;;;;4.85;2.60;;;;;;;1.39;100.00;95794.44;5112555;28;20024;-69
2022/01/20 16:03:59;;;;;;;5.13;2.15;;;;;;;1.38;100.00;95798.06;5114648;27;20039;-68
2022/01/20 16:06:25;;;;;;;3.63;2.47;;;;;;;1.35;100.00;95798.47;5121735;27;20039;-69
2022/01/20 16:08:50;;;;;;;5.45;2.60;;;;;;;1.33;100.00;95816.31;5110925;28;20034;-69
2022/01/20 16:11:18;;;;;;;6.30;2.50;;;;;;;1.32;100.00;95823.44;5123938;27;20096;-68
2022/01/20 16:13:44;;;;;;;4.25;2.65;;;;;;;1.28;100.00;95818.69;5131486;27;20030;-69
2022/01/20 16:16:14;;;;;;;4.53;2.35;;;;;;;1.27;100.00;95825.78;5130902;27;22601;-69
2022/01/20 16:18:40;;;;;;;4.20;2.50;;;;;;;1.24;100.00;95833.28;5131364;27;20478;-69
2022/01/20 16:21:16;;;;;;;6.22;2.60;;;;;;;1.23;100.00;95839.56;5133077;27;20023;-69
2022/01/20 16:23:44;;;;;;;5.88;2.22;;;;;;;1.21;100.00;95831.84;5135880;27;20115;-69
2022/01/20 16:26:10;;;;;;;3.72;2.03;;;;;;;1.22;100.00;95837.94;5111706;28;20042;-69
2022/01/20 16:28:35;;;;;;;5.28;2.53;;;;;;;1.23;100.00;95842.22;5112705;27;20489;-68
2022/01/20 16:31:03;;;;;;;5.32;2.42;;;;;;;1.20;100.00;95847.88;5131442;27;20023;-69
2022/01/20 16:33:28;;;;;;;4.72;2.35;;;;;;;1.21;100.00;95845.03;5132239;27;20015;-68
2022/01/20 16:35:56;;;;;;;4.80;2.17;;;;;;;1.21;100.00;95857.41;5130001;27;20828;-68
2022/01/20 16:38:21;;;;;;;5.15;2.50;;;;;;;1.16;100.00;95857.97;5110619;28;20439;-69
2022/01/20 16:40:46;;;;;;;5.57;2.35;;;;;;;1.13;100.00;95867.06;5123237;27;20077;-69
2022/01/20 16:43:14;;;;;;;5.50;2.47;;;;;;;1.10;100.00;95870.09;5111983;28;20351;-68
2022/01/20 16:45:42;;;;;;;4.03;2.20;;;;;;;1.08;100.00;95876.53;5118466;27;20063;-69
2022/01/20 16:48:10;;;;;;;5.22;2.03;;;;;;;1.04;100.00;95886.66;5123416;27;20035;-69
2022/01/20 16:50:39;;;;;;;4.72;2.30;;;;;;;0.98;100.00;95889.25;5131119;27;20014;-68
2022/01/20 16:53:09;;;;;;;4.88;2.30;;;;;;;0.96;100.00;95883.31;5131428;27;20023;-69
2022/01/20 16:55:38;;;;;;;4.65;2.50;;;;;;;0.94;100.00;95883.50;5132723;27;20031;-70
2022/01/20 16:58:08;;;;;;;6.93;2.58;;;;;;;0.91;100.00;95893.59;5126751;27;20023;-69
2022/01/20 17:00:33;;;;;;;4.75;2.58;;;;;;;0.86;100.00;95897.59;5129306;27;20023;-68
2022/01/20 17:03:12;;;;;;;3.47;2.50;;;;;;;0.83;100.00;95903.25;5130474;27;20466;-69
2022/01/20 17:05:42;;;;;;;5.75;2.60;;;;;;;0.80;100.00;95906.25;5129903;27;20066;-69
2022/01/20 17:08:08;;;;;;;3.42;2.35;;;;;;;0.75;100.00;95908.63;5125383;27;20038;-69
2022/01/20 17:10:33;;;;;;;3.33;2.28;;;;;;;0.70;100.00;95913.63;5128711;27;20397;-68
2022/01/20 17:13:01;;;;;;;7.30;2.85;;;;;;;0.67;100.00;95926.38;5130422;27;20370;-69
2022/01/20 17:15:28;;;;;;;4.75;2.50;;;;;;;0.58;100.00;95934.38;5126901;27;20023;-67
2022/01/20 17:17:54;;;;;;;3.33;2.35;;;;;;;0.54;100.00;95940.16;5125760;27;20015;-66
2022/01/20 17:20:21;;;;;;;4.05;2.22;;;;;;;0.54;100.00;95959.47;5129186;27;20030;-68
2022/01/20 17:22:47;;;;;;;5.93;2.55;;;;;;;0.51;100.00;95959.81;5121784;27;20111;-68
2022/01/20 17:25:12;;;;;;;4.28;2.38;;;;;;;0.49;100.00;95961.81;5126451;27;20511;-68
2022/01/20 17:27:39;;;;;;;4.35;2.40;;;;;;;0.48;100.00;95969.91;5126038;27;20034;-68
2022/01/20 17:30:08;;;;;;;5.10;3.08;;;;;;;0.45;100.00;95972.91;5125603;27;20015;-68
2022/01/20 17:32:38;;;;;;;5.55;2.78;;;;;;;0.42;100.00;95979.34;5136045;27;20018;-69
2022/01/20 17:35:04;;;;;;;7.30;2.80;;;;;;;0.40;100.00;95988.41;5130840;27;20397;-69
2022/01/20 17:37:29;;;;;;;7.35;2.83;;;;;;;0.37;100.00;95988.78;5133681;27;20022;-68
2022/01/20 17:39:55;;;;;;;5.88;2.55;;;;;;;0.37;100.00;95991.44;5131965;27;20027;-67
2022/01/20 17:42:20;;;;;;;7.25;2.90;;;;;;;0.34;100.00;96002.34;5130278;27;20026;-68
2022/01/20 17:44:45;;;;;;;5.68;2.60;;;;;;;0.33;100.00;95998.88;5128914;27;20031;-69
2022/01/20 17:47:11;;;;;;;6.75;3.20;;;;;;;0.31;100.00;96003.47;5129862;27;20392;-69
2022/01/20 17:49:36;;;;;;;4.00;2.92;;;;;;;0.32;100.00;96006.94;5112415;27;20031;-68
2022/01/20 17:52:02;;;;;;;6.55;3.40;;;;;;;0.31;100.00;96015.84;5133123;27;20034;-68
2022/01/20 17:54:31;;;;;;;5.80;3.00;;;;;;;0.31;100.00;96014.03;5141771;27;20027;-67
2022/01/20 17:56:56;;;;;;;5.32;2.47;;;;;;;0.33;100.00;96014.69;5135957;27;20035;-69
2022/01/20 17:59:24;;;;;;;5.93;2.50;;;;;;;0.34;100.00;96010.25;5127966;27;20029;-69
2022/01/20 18:01:53;;;;;;;9.18;2.70;;;;;;;0.36;100.00;96016.16;5127233;27;20118;-69
2022/01/20 18:04:20;;;;;;;4.30;2.33;;;;;;;0.34;100.00;96013.69;5131717;27;20122;-68
2022/01/20 18:06:46;;;;;;;5.75;2.40;;;;;;;0.33;100.00;96012.06;5134742;27;20372;-69
2022/01/20 18:09:15;;;;;;;4.22;2.47;;;;;;;0.33;100.00;96019.97;5132660;27;20238;-70
2022/01/20 18:11:42;;;;;;;6.13;2.75;;;;;;;0.34;100.00;96031.31;5118162;27;20023;-68
2022/01/20 18:14:11;;;;;;;5.80;2.50;;;;;;;0.33;100.00;96030.50;5110475;27;20023;-68
2022/01/20 18:16:37;;;;;;;5.95;2.70;;;;;;;0.34;100.00;96040.03;5111465;27;20043;-69
2022/01/20 18:19:03;;;;;;;5.82;2.92;;;;;;;0.34;100.00;96039.22;5119141;27;20059;-65
2022/01/20 18:21:28;;;;;;;6.22;3.22;;;;;;;0.36;100.00;96045.94;5121796;27;20058;-68
2022/01/20 18:23:55;;;;;;;5.70;3.00;;;;;;;0.34;100.00;96039.22;5121449;27;20123;-68
2022/01/20 18:26:23;;;;;;;6.03;2.90;;;;;;;0.36;100.00;96045.94;5119264;27;20030;-67
2022/01/20 18:28:50;;;;;;;6.63;2.97;;;;;;;0.36;100.00;96050.41;5119557;27;20055;-67
2022/01/20 18:31:18;;;;;;;5.82;2.90;;;;;;;0.31;100.00;96045.66;5144241;27;20030;-68
2022/01/20 18:33:46;;;;;;;4.05;2.33;;;;;;;0.31;100.00;96042.19;5124902;27;20018;-68
2022/01/20 18:36:11;;;;;;;6.03;2.72;;;;;;;0.29;100.00;96048.47;5146150;27;20426;-69
2022/01/20 18:38:37;;;;;;;4.53;2.60;;;;;;;0.26;100.00;96051.47;5153023;27;20022;-67
2022/01/20 18:41:04;;;;;;;3.72;2.78;;;;;;;0.23;100.00;96064.19;5141888;27;20023;-66
2022/01/20 18:43:30;;;;;;;4.25;2.50;;;;;;;0.19;100.00;96055.78;5151815;27;20053;-68
2022/01/20 18:45:55;;;;;;;3.85;2.30;;;;;;;0.14;100.00;96063.41;5152045;27;20050;-68
2022/01/20 18:48:21;;;;;;;4.43;2.55;;;;;;;0.14;100.00;96070.50;5153091;27;20046;-67
2022/01/20 18:50:46;;;;;;;5.28;2.80;;;;;;;0.12;100.00;96072.50;5154459;27;20476;-68
2022/01/20 18:53:22;;;;;;;3.55;2.35;;;;;;;0.07;100.00;96073.00;5142007;27;20030;-67
2022/01/20 18:55:48;;;;;;;6.72;2.40;;;;;;;0.03;100.00;96071.72;5154333;27;20022;-67
2022/01/20 18:58:14;;;;;;;4.60;2.25;;;;;;;-0.01;100.00;96063.34;5148784;27;20031;-68
2022/01/20 19:00:40;;;;;;;4.25;2.33;;;;;;;-0.04;100.00;96074.22;5138343;27;20437;-68
2022/01/20 19:03:05;;;;;;;5.13;2.15;;;;;;;-0.05;100.00;96079.66;5153981;27;20062;-68
2022/01/20 19:05:34;;;;;;;3.47;2.58;;;;;;;-0.06;100.00;96078.03;5141613;27;20084;-68
2022/01/20 19:08:02;;;;;;;7.03;2.38;;;;;;;-0.07;100.00;96082.50;5148920;27;20037;-68
2022/01/20 19:10:51;;;;;;;6.15;2.55;;;;;;;-0.11;100.00;96078.56;5147366;27;20023;-69
2022/01/20 19:13:17;;;;;;;2.97;1.90;;;;;;;-0.13;100.00;96077.09;5154020;27;20072;-66
2022/01/20 19:15:45;;;;;;;3.45;1.95;;;;;;;-0.14;100.00;96080.72;5153800;27;20057;-68
2022/01/20 19:18:10;;;;;;;3.13;1.83;;;;;;;-0.16;100.00;96077.44;5118471;27;20114;-68
2022/01/20 19:20:36;;;;;;;3.28;1.35;;;;;;;-0.20;100.00;96076.97;5153522;27;20145;-68
2022/01/20 19:23:03;;;;;;;1.95;1.30;;;;;;;-0.21;100.00;96070.06;5146790;27;20468;-68
2022/01/20 19:25:32;;;;;;;3.33;1.27;;;;;;;-0.23;100.00;96087.00;5151798;27;20029;-68
2022/01/20 19:27:59;;;;;;;2.08;1.48;;;;;;;-0.25;100.00;96074.03;5151430;27;20055;-68
2022/01/20 19:30:25;;;;;;;2.10;1.20;;;;;;;-0.26;100.00;96080.28;5119452;27;20494;-68
2022/01/20 19:32:52;;;;;;;3.22;1.20;;;;;;;-0.28;100.00;96071.75;5148118;27;20027;-69
2022/01/20 19:35:20;;;;;;;2.20;1.20;;;;;;;-0.31;100.00;96077.38;5124067;27;20039;-66
2022/01/20 19:37:46;;;;;;;4.20;1.00;;;;;;;-0.35;100.00;96063.72;5151453;27;20029;-69
2022/01/20 19:40:14;;;;;;;5.80;1.75;;;;;;;-0.35;100.00;96062.91;5151284;27;20530;-67
2022/01/20 19:42:42;;;;;;;4.18;1.50;;;;;;;-0.35;100.00;96062.91;5153174;27;20031;-68
2022/01/20 19:45:08;;;;;;;2.53;1.40;;;;;;;-0.39;100.00;96059.78;5152878;27;20726;-69
2022/01/20 19:47:35;;;;;;;3.05;1.25;;;;;;;-0.43;100.00;96057.69;5140113;27;20106;-68
2022/01/20 19:50:08;;;;;;;2.45;0.88;;;;;;;-0.47;100.00;96049.31;5152882;27;20026;-68
2022/01/20 19:52:35;;;;;;;3.55;1.27;;;;;;;-0.52;100.00;96056.91;5139812;27;20019;-68
2022/01/20 19:55:05;;;;;;;3.65;1.00;;;;;;;-0.56;100.00;96060.84;5145343;27;20042;-68
2022/01/20 19:57:31;;;;;;;2.40;1.30;;;;;;;-0.56;100.00;96057.41;5152602;27;20033;-68
2022/01/20 19:59:56;;;;;;;3.90;1.20;;;;;;;-0.60;100.00;96055.13;5133446;27;20027;-68
2022/01/20 20:02:28;;;;;;;1.92;1.33;;;;;;;-0.63;100.00;96065.19;5132483;27;20725;-69
2022/01/20 20:04:53;;;;;;;3.90;1.10;;;;;;;-0.69;100.00;96066.69;5128845;27;20047;-68
2022/01/20 20:07:19;;;;;;;2.08;0.85;;;;;;;-0.73;100.00;96069.84;5130757;27;20103;-67
2022/01/20 20:09:44;;;;;;;3.03;1.38;;;;;;;-0.77;100.00;96065.88;5130914;27;20023;-68
2022/01/20 20:12:15;;;;;;;1.95;1.00;;;;;;;-0.86;100.00;96051.97;5130307;27;20019;-69
2022/01/20 20:14:42;;;;;;;3.40;1.23;;;;;;;-0.93;100.00;96043.91;5131976;27;20405;-69
2022/01/20 20:17:07;;;;;;;2.60;1.20;;;;;;;-1.00;100.00;96048.22;5120219;27;20030;-69
2022/01/20 20:19:39;;;;;;;4.60;1.50;;;;;;;-1.05;100.00;96052.34;5111429;28;20027;-69
2022/01/20 20:22:05;;;;;;;2.83;1.20;;;;;;;-1.10;100.00;96057.28;5112138;27;20103;-68
2022/01/20 20:24:37;;;;;;;4.63;1.60;;;;;;;-1.14;100.00;96066.50;5116294;27;20040;-68
2022/01/20 20:27:08;;;;;;;4.93;1.92;;;;;;;-1.19;100.00;96074.91;5110673;28;20024;-68
2022/01/20 20:29:37;;;;;;;5.45;1.35;;;;;;;-1.27;100.00;96067.03;5121109;27;20027;-69
2022/01/20 20:32:08;;;;;;;3.42;1.50;;;;;;;-1.35;100.00;96065.22;5111255;28;20555;-69
2022/01/20 20:34:40;;;;;;;2.95;1.50;;;;;;;-1.45;100.00;96069.84;5122688;27;20030;-69
2022/01/20 20:37:08;;;;;;;1.47;1.10;;;;;;;-1.52;100.00;96066.22;5109980;28;20054;-68
2022/01/20 20:39:34;;;;;;;3.88;1.42;;;;;;;-1.60;100.00;96066.25;5111084;28;20120;-69
2022/01/20 20:42:05;;;;;;;1.52;1.23;;;;;;;-1.69;100.00;96072.50;5109269;27;20035;-69
2022/01/20 20:44:34;;;;;;;3.75;1.85;;;;;;;-1.77;100.00;96076.75;5109866;28;20027;-69
2022/01/20 20:47:07;;;;;;;2.22;1.75;;;;;;;-1.79;100.00;96072.66;5109951;27;20468;-69
2022/01/20 20:49:38;;;;;;;2.22;1.40;;;;;;;-1.82;100.00;96086.94;5109310;28;20424;-69
2022/01/20 20:52:10;;;;;;;4.20;1.75;;;;;;;-1.84;100.00;96095.97;5110654;27;20497;-68
2022/01/20 20:54:43;;;;;;;4.32;1.52;;;;;;;-1.90;100.00;96097.44;5130220;27;20026;-69
2022/01/20 20:57:28;;;;;;;1.95;1.50;;;;;;;-1.96;100.00;96092.81;5130840;27;20027;-69
2022/01/20 20:59:56;;;;;;;4.68;1.65;;;;;;;-2.05;100.00;96091.19;5127633;27;20035;-66
2022/01/20 21:02:23;;;;;;;2.90;1.70;;;;;;;-2.09;100.00;96095.09;5130092;27;20385;-68
2022/01/20 21:04:49;;;;;;;6.22;2.05;;;;;;;-2.12;100.00;96098.06;5130868;27;20046;-67
2022/01/20 21:07:22;;;;;;;3.20;1.63;;;;;;;-2.16;100.00;96107.25;5131071;27;20023;-69
2022/01/20 21:09:47;;;;;;;3.20;1.92;;;;;;;-2.25;100.00;96106.41;5151748;27;20026;-67
2022/01/20 21:12:19;;;;;;;2.83;1.70;;;;;;;-2.33;100.00;96115.06;5132411;27;20423;-68
2022/01/20 21:14:46;;;;;;;3.80;2.00;;;;;;;-2.35;100.00;96117.03;5151706;27;20022;-69
2022/01/20 21:17:15;;;;;;;2.83;1.67;;;;;;;-2.37;100.00;96118.19;5138702;27;20035;-69
2022/01/20 21:20:06;;;;;;;3.35;1.90;;;;;;;-2.44;100.00;96111.91;5130959;27;20043;-69
2022/01/20 21:22:38;;;;;;;5.70;2.05;;;;;;;-2.49;100.00;96112.41;5129985;27;20059;-68
2022/01/20 21:25:05;;;;;;;3.78;2.03;;;;;;;-2.54;100.00;96117.28;5130392;27;20031;-67
2022/01/20 21:27:34;;;;;;;4.97;2.28;;;;;;;-2.61;100.00;96116.25;5133291;27;20117;-69
2022/01/20 21:29:59;;;;;;;3.00;1.90;;;;;;;-2.75;100.00;96124.72;5132389;27;20027;-69
2022/01/20 21:32:26;;;;;;;3.22;1.80;;;;;;;-2.81;100.00;96113.09;5133714;27;20478;-69
2022/01/20 21:35:02;;;;;;;5.93;1.73;;;;;;;-2.85;100.00;96124.03;5137729;27;20031;-69
2022/01/20 21:37:35;;;;;;;4.10;2.17;;;;;;;-2.90;100.00;96121.06;5119279;27;20413;-68
2022/01/20 21:40:02;;;;;;;3.83;1.65;;;;;;;-2.93;100.00;96125.66;5112914;28;20028;-67
2022/01/20 21:42:30;;;;;;;3.63;1.67;;;;;;;-2.99;100.00;96123.63;5134935;27;20023;-69
2022/01/20 21:44:58;;;;;;;4.03;1.80;;;;;;;-2.97;100.00;96126.09;5135697;27;20019;-69
2022/01/20 21:47:35;;;;;;;3.15;1.58;;;;;;;-2.85;100.00;96124.84;5134002;27;20030;-68
2022/01/20 21:50:01;;;;;;;3.35;1.65;;;;;;;-2.74;100.00;96124.56;5135589;27;20039;-67
2022/01/20 21:52:26;;;;;;;3.72;1.40;;;;;;;-2.69;100.00;96126.75;5133041;27;20019;-68
2022/01/20 21:54:55;;;;;;;1.88;1.50;;;;;;;-2.67;100.00;96137.88;5135814;27;20046;-68
2022/01/20 21:57:20;;;;;;;2.20;1.50;;;;;;;-2.65;100.00;96138.56;5135090;27;20027;-68
2022/01/20 21:59:48;;;;;;;4.32;1.77;;;;;;;-2.64;100.00;96132.31;5134521;27;20131;-68
2022/01/20 22:02:16;;;;;;;2.88;1.40;;;;;;;-2.63;100.00;96126.91;5135338;27;20576;-68
2022/01/20 22:04:43;;;;;;;5.15;1.77;;;;;;;-2.60;100.00;96127.59;5133871;27;20039;-68
2022/01/20 22:07:09;;;;;;;3.97;1.42;;;;;;;-2.56;100.00;96121.06;5134751;27;20019;-68
2022/01/20 22:09:36;;;;;;;3.50;1.67;;;;;;;-2.53;100.00;96123.34;5134184;27;20080;-68
2022/01/20 22:12:03;;;;;;;2.95;1.67;;;;;;;-2.51;100.00;96131.88;5134278;27;20034;-67
2022/01/20 22:14:32;;;;;;;3.10;1.58;;;;;;;-2.50;100.00;96125.66;5135416;27;20019;-67
2022/01/20 22:17:03;;;;;;;4.50;1.95;;;;;;;-2.49;100.00;96115.03;5132162;27;20027;-68
2022/01/20 22:19:29;;;;;;;2.35;1.60;;;;;;;-2.50;100.00;96118.59;5133918;27;20050;-67
2022/01/20 22:22:00;;;;;;;5.43;1.80;;;;;;;-2.49;100.00;96122.91;5133522;27;20070;-67
2022/01/20 22:24:25;;;;;;;4.40;1.75;;;;;;;-2.45;100.00;96128.63;5134638;27;20023;-68
2022/01/20 22:26:54;;;;;;;3.75;1.55;;;;;;;-2.43;100.00;96119.63;5133342;27;20027;-67
2022/01/20 22:29:22;;;;;;;4.40;1.48;;;;;;;-2.41;100.00;96116.84;5130068;27;20031;-68
2022/01/20 22:31:49;;;;;;;2.78;1.65;;;;;;;-2.42;100.00;96109.94;5114364;28;20378;-67
2022/01/20 22:34:17;;;;;;;5.28;1.60;;;;;;;-2.41;100.00;96119.47;5115656;27;20022;-68
2022/01/20 22:37:06;;;;;;;2.25;1.15;;;;;;;-2.42;100.00;96118.63;5131103;27;20023;-68
2022/01/20 22:39:33;;;;;;;4.05;1.52;;;;;;;-2.43;100.00;96117.00;5133554;27;20027;-68
2022/01/20 22:41:59;;;;;;;4.57;1.90;;;;;;;-2.38;100.00;96122.59;5116380;27;20027;-67
2022/01/20 22:44:27;;;;;;;6.18;1.90;;;;;;;-2.33;100.00;96122.13;5112438;28;20057;-68
2022/01/20 22:47:07;;;;;;;4.22;1.63;;;;;;;-2.29;100.00;96123.44;5118805;27;20062;-68
2022/01/20 22:49:34;;;;;;;3.53;1.65;;;;;;;-2.26;100.00;96119.69;5133378;27;20075;-67
2022/01/20 22:52:01;;;;;;;5.90;1.85;;;;;;;-2.26;100.00;96122.31;5132408;27;20019;-67
2022/01/20 22:54:30;;;;;;;5.35;1.73;;;;;;;-2.28;100.00;96127.72;5124186;27;20036;-67
2022/01/20 22:56:55;;;;;;;3.90;1.40;;;;;;;-2.28;100.00;96125.09;5113015;28;20038;-67
2022/01/20 22:59:23;;;;;;;2.70;1.30;;;;;;;-2.28;100.00;96121.63;5123597;27;20031;-68
2022/01/20 23:01:49;;;;;;;5.07;1.73;;;;;;;-2.29;100.00;96112.09;5133944;27;20500;-68
2022/01/20 23:04:14;;;;;;;2.35;1.73;;;;;;;-2.31;100.00;96127.19;5129675;27;20090;-68
2022/01/20 23:06:42;;;;;;;6.55;1.48;;;;;;;-2.34;100.00;96129.16;5112836;28;20028;-67
2022/01/20 23:09:13;;;;;;;5.43;1.50;;;;;;;-2.35;100.00;96130.16;5113388;28;20020;-67
2022/01/20 23:11:39;;;;;;;4.75;1.33;;;;;;;-2.34;100.00;96117.84;5112292;27;20035;-67
2022/01/20 23:14:05;;;;;;;4.18;1.40;;;;;;;-2.36;100.00;96122.44;5111841;28;20023;-67
2022/01/20 23:20:48;;;;;;;2.42;1.20;;;;;;;-2.38;100.00;96127.84;5112946;28;20413;-68
2022/01/20 23:21:52;;;;;;;1.63;0.85;;;;;;;-2.39;100.00;96136.69;5122266;27;20027;-68
2022/01/20 23:24:18;;;;;;;2.70;1.10;;;;;;;-2.37;100.00;96128.66;5113219;27;20243;-67
2022/01/20 23:26:43;;;;;;;4.20;1.05;;;;;;;-2.34;100.00;96141.47;5111371;28;20130;-67
2022/01/20 23:29:15;;;;;;;5.15;1.27;;;;;;;-2.31;100.00;96140.31;5121338;27;20023;-67
2022/01/20 23:31:40;;;;;;;4.28;1.73;;;;;;;-2.31;100.00;96146.38;5117764;27;20024;-67
2022/01/20 23:34:08;;;;;;;2.05;1.00;;;;;;;-2.29;100.00;96148.84;5111731;27;20498;-66
2022/01/20 23:36:35;;;;;;;2.75;1.10;;;;;;;-2.28;100.00;96150.47;5121002;27;20023;-67
2022/01/20 23:39:10;;;;;;;2.45;1.30;;;;;;;-2.29;100.00;96152.28;5127017;27;20050;-66
2022/01/20 23:42:15;;;;;;;4.55;1.40;;;;;;;-2.28;100.00;96145.25;5111764;27;20389;-66
2022/01/20 23:44:55;;;;;;;3.38;1.60;;;;;;;-2.30;100.00;96160.31;5112148;28;20019;-66
2022/01/20 23:50:05;;;;;;;3.60;1.17;;;;;;;-2.37;100.00;96157.53;5111132;28;20119;-66
2022/01/20 23:52:31;;;;;;;2.75;1.20;;;;;;;-2.44;100.00;96154.72;5114659;27;20128;-66
2022/01/20 23:54:59;;;;;;;3.15;1.33;;;;;;;-2.49;100.00;96159.63;5132831;27;20489;-66
2022/01/20 23:57:28;;;;;;;3.15;1.10;;;;;;;-2.57;100.00;96156.13;5131344;27;20031;-66
2022/01/20 23:59:53;;;;;;;3.28;1.25;;;;;;;-2.64;100.00;96171.66;5129408;27;20031;-66
